Time;durP1;ratioP1;P1;durP2;ratioP2;P2;SDS_P1;SDS_P2;PMS_P1;PMS_P2;Temp;Humidity;BMP_temperature;BMP_pressure;BME280_temperature;BME280_humidity;BME280_pressure;Samples;Min_cycle;Max_cycle;Signal;HPM_P1;HPM_P2
2022/03/28 02:06:01;;;;;;;23.90;19.70;;;7.10;99.90;;;;;;5434824;23;20782;-68
2022/03/28 02:08:27;;;;;;;23.17;20.67;;;7.10;99.90;;;;;;5003330;28;20477;-68
2022/03/28 02:10:55;;;;;;;22.90;20.47;;;7.10;99.90;;;;;;4994641;28;20457;-68
2022/03/28 02:13:21;;;;;;;23.37;20.97;;;7.00;99.90;;;;;;4994690;28;20455;-69
2022/03/28 02:15:48;;;;;;;25.97;23.37;;;7.00;99.90;;;;;;5005230;28;20465;-68
2022/03/28 02:18:15;;;;;;;25.27;19.87;;;7.00;99.90;;;;;;4994478;28;20453;-69
2022/03/28 02:20:41;;;;;;;21.57;19.37;;;7.00;99.90;;;;;;4994227;28;20482;-68
2022/03/28 02:23:09;;;;;;;21.50;19.20;;;6.90;99.90;;;;;;4994412;28;20462;-69
2022/03/28 02:25:39;;;;;;;23.03;20.73;;;6.90;99.90;;;;;;4994678;28;20819;-68
2022/03/28 02:28:06;;;;;;;26.93;23.40;;;6.90;99.90;;;;;;4994217;28;20516;-69
2022/03/28 02:30:33;;;;;;;23.73;21.23;;;6.80;99.90;;;;;;4994072;28;20952;-69
2022/03/28 02:33:00;;;;;;;25.17;21.20;;;6.80;99.90;;;;;;4994434;28;20461;-69
2022/03/28 02:35:26;;;;;;;23.60;20.47;;;6.80;99.90;;;;;;4993837;28;20959;-68
2022/03/28 02:37:53;;;;;;;23.00;20.37;;;6.80;99.90;;;;;;4994204;28;20462;-68
2022/03/28 02:40:21;;;;;;;24.37;20.73;;;6.80;99.90;;;;;;4993996;28;20484;-68
2022/03/28 02:42:48;;;;;;;25.63;19.70;;;6.80;99.90;;;;;;4994033;28;20452;-68
2022/03/28 02:45:15;;;;;;;22.73;19.43;;;6.70;99.90;;;;;;4993897;28;21014;-69
2022/03/28 02:47:42;;;;;;;23.87;21.17;;;6.70;99.90;;;;;;4993802;28;20514;-69
2022/03/28 02:50:09;;;;;;;25.93;20.43;;;6.60;99.90;;;;;;4993879;28;20958;-69
2022/03/28 02:52:36;;;;;;;26.33;19.60;;;6.60;99.90;;;;;;4993500;28;20466;-69
2022/03/28 02:55:03;;;;;;;26.40;18.87;;;6.60;99.90;;;;;;4993895;28;20829;-70
2022/03/28 02:57:31;;;;;;;22.10;18.10;;;6.50;99.90;;;;;;4993619;28;20469;-70
2022/03/28 02:59:58;;;;;;;20.63;18.63;;;6.40;99.90;;;;;;4993610;28;21024;-70
2022/03/28 03:02:25;;;;;;;22.37;19.40;;;6.40;99.90;;;;;;4993730;28;20562;-69
2022/03/28 03:04:51;;;;;;;20.60;18.47;;;6.40;99.90;;;;;;4993466;28;20472;-69
2022/03/28 03:07:19;;;;;;;20.93;18.10;;;6.30;99.90;;;;;;4993628;28;20481;-69
2022/03/28 03:09:48;;;;;;;22.43;18.17;;;6.20;99.90;;;;;;4993771;28;20486;-69
2022/03/28 03:12:14;;;;;;;21.33;19.20;;;6.20;99.90;;;;;;4993331;28;20708;-69
2022/03/28 03:14:42;;;;;;;19.67;17.67;;;6.10;99.90;;;;;;4993275;28;20447;-68
2022/03/28 03:17:09;;;;;;;19.07;17.47;;;6.10;99.90;;;;;;4993172;28;20459;-69
2022/03/28 03:19:38;;;;;;;18.70;16.90;;;6.10;99.90;;;;;;4993611;28;20821;-69
2022/03/28 03:22:06;;;;;;;23.73;19.80;;;6.10;99.90;;;;;;4993279;28;20590;-69
2022/03/28 03:24:32;;;;;;;20.03;17.93;;;6.00;99.90;;;;;;4993286;28;20459;-69
2022/03/28 03:26:59;;;;;;;20.17;18.30;;;5.90;99.90;;;;;;4993103;28;20458;-68
2022/03/28 03:29:26;;;;;;;20.83;19.00;;;5.90;99.90;;;;;;4993205;28;20451;-70
2022/03/28 03:31:54;;;;;;;24.33;21.90;;;5.90;99.90;;;;;;4993232;28;20448;-70
2022/03/28 03:34:20;;;;;;;19.67;17.67;;;6.00;99.90;;;;;;4993527;28;20462;-70
2022/03/28 03:36:47;;;;;;;18.53;16.30;;;6.00;99.90;;;;;;4992837;28;20452;-69
2022/03/28 03:39:14;;;;;;;20.60;18.57;;;5.90;99.90;;;;;;4993025;28;20463;-69
2022/03/28 03:41:41;;;;;;;18.60;16.87;;;5.80;99.90;;;;;;4992942;28;20494;-69
2022/03/28 03:44:07;;;;;;;17.53;16.00;;;5.80;99.90;;;;;;4992945;28;20481;-69
2022/03/28 03:46:34;;;;;;;20.20;18.10;;;5.70;99.90;;;;;;4993158;28;20835;-69
2022/03/28 03:49:02;;;;;;;19.47;17.70;;;5.70;99.90;;;;;;4992797;28;20458;-69
2022/03/28 03:51:29;;;;;;;24.93;19.83;;;5.70;99.90;;;;;;4992708;28;20458;-68
2022/03/28 03:53:56;;;;;;;20.20;18.23;;;5.70;99.90;;;;;;4992591;28;20452;-68
2022/03/28 03:56:23;;;;;;;18.70;17.00;;;5.60;99.90;;;;;;4992731;28;20451;-68
2022/03/28 03:58:49;;;;;;;19.57;17.47;;;5.60;99.90;;;;;;4992344;28;20463;-69
2022/03/28 04:01:16;;;;;;;23.07;17.77;;;5.60;99.90;;;;;;4992492;28;21053;-68
2022/03/28 04:03:43;;;;;;;20.03;17.90;;;5.60;99.90;;;;;;4991697;28;20479;-69
2022/03/28 04:06:11;;;;;;;17.70;15.90;;;5.60;99.90;;;;;;4992580;28;21036;-70
2022/03/28 04:08:38;;;;;;;21.67;17.70;;;5.60;99.90;;;;;;4992602;28;20811;-68
2022/03/28 04:11:05;;;;;;;25.30;18.07;;;5.60;99.90;;;;;;4992618;28;20487;-69
2022/03/28 04:13:32;;;;;;;20.57;17.50;;;5.50;99.90;;;;;;4992408;28;20979;-69
2022/03/28 04:15:58;;;;;;;20.13;17.87;;;5.50;99.90;;;;;;4991763;28;20452;-70
2022/03/28 04:18:27;;;;;;;20.77;17.83;;;5.50;99.90;;;;;;4992089;28;20459;-68
2022/03/28 04:20:53;;;;;;;20.57;18.37;;;5.50;99.90;;;;;;4992521;28;20573;-70
2022/03/28 04:23:23;;;;;;;20.33;17.67;;;5.40;99.90;;;;;;4992210;28;20462;-70
2022/03/28 04:25:50;;;;;;;20.83;16.93;;;5.40;99.90;;;;;;4992366;28;20467;-69
2022/03/28 04:28:17;;;;;;;20.97;18.77;;;5.40;99.90;;;;;;4991884;28;20455;-69
2022/03/28 04:30:44;;;;;;;19.33;17.43;;;5.40;99.90;;;;;;4992074;28;20458;-70
2022/03/28 04:33:11;;;;;;;19.27;16.73;;;5.40;99.90;;;;;;4991787;28;20460;-70
2022/03/28 04:35:39;;;;;;;18.40;16.77;;;5.40;99.90;;;;;;4992272;28;20451;-70
2022/03/28 04:38:06;;;;;;;19.93;17.33;;;5.30;99.90;;;;;;4991924;28;20452;-70
2022/03/28 04:40:35;;;;;;;20.40;18.23;;;5.40;99.90;;;;;;4991503;28;20492;-70
2022/03/28 04:43:02;;;;;;;21.80;17.67;;;5.40;99.90;;;;;;4991806;28;21010;-69
2022/03/28 04:45:30;;;;;;;19.40;17.47;;;5.30;99.90;;;;;;4991781;28;20454;-69
2022/03/28 04:47:57;;;;;;;19.00;17.07;;;5.30;99.90;;;;;;4991413;28;20964;-69
2022/03/28 04:50:24;;;;;;;17.40;15.80;;;5.30;99.90;;;;;;4991550;28;21257;-69
2022/03/28 04:52:51;;;;;;;19.27;17.27;;;5.30;99.90;;;;;;4991818;28;20454;-69
2022/03/28 04:55:17;;;;;;;18.70;16.73;;;5.30;99.90;;;;;;4991671;28;20452;-69
2022/03/28 04:57:45;;;;;;;18.37;15.30;;;5.30;99.90;;;;;;4991423;28;20971;-68
2022/03/28 05:00:13;;;;;;;19.47;17.30;;;5.30;99.90;;;;;;4991324;28;20451;-69
2022/03/28 05:02:40;;;;;;;23.73;16.90;;;5.20;99.90;;;;;;4991558;28;20455;-69
2022/03/28 05:05:08;;;;;;;17.43;15.73;;;5.20;99.90;;;;;;4991439;28;20492;-69
2022/03/28 05:07:35;;;;;;;24.63;18.40;;;5.20;99.90;;;;;;4991558;28;20665;-69
2022/03/28 05:10:02;;;;;;;20.87;18.80;;;5.20;99.90;;;;;;4991426;28;20458;-69
2022/03/28 05:12:29;;;;;;;20.77;18.57;;;5.20;99.90;;;;;;4991320;28;20879;-69
2022/03/28 05:14:57;;;;;;;19.57;17.63;;;5.20;99.90;;;;;;4991116;28;20474;-69
2022/03/28 05:17:24;;;;;;;17.63;15.90;;;5.20;99.90;;;;;;4991579;28;20454;-69
2022/03/28 05:19:52;;;;;;;24.20;16.60;;;5.20;99.90;;;;;;4991385;28;20467;-70
2022/03/28 05:22:20;;;;;;;20.70;18.43;;;5.20;99.90;;;;;;4991459;28;20493;-70
2022/03/28 05:24:46;;;;;;;23.83;16.60;;;5.30;99.90;;;;;;4991380;28;20796;-68
2022/03/28 05:27:13;;;;;;;21.00;18.60;;;5.20;99.90;;;;;;4991315;28;20455;-67
2022/03/28 05:29:40;;;;;;;19.73;17.73;;;5.30;99.90;;;;;;4991373;28;20948;-68
2022/03/28 05:32:09;;;;;;;18.70;15.80;;;5.20;99.90;;;;;;4991814;28;20455;-69
2022/03/28 05:34:36;;;;;;;25.10;17.10;;;5.30;99.90;;;;;;4991315;28;20454;-68
2022/03/28 05:37:06;;;;;;;25.93;19.63;;;5.30;99.90;;;;;;4990985;28;20458;-68
2022/03/28 05:39:34;;;;;;;20.87;18.20;;;5.30;99.90;;;;;;4991285;28;20794;-68
2022/03/28 05:42:01;;;;;;;23.50;18.63;;;5.30;99.90;;;;;;4990863;28;20630;-68
2022/03/28 05:44:28;;;;;;;22.73;18.53;;;5.40;99.90;;;;;;4991130;28;20458;-68
2022/03/28 05:46:55;;;;;;;20.93;16.90;;;5.40;99.90;;;;;;4991318;28;20481;-68
2022/03/28 05:49:23;;;;;;;22.70;19.77;;;5.40;99.90;;;;;;4991184;28;20453;-68
2022/03/28 05:51:50;;;;;;;20.43;18.40;;;5.40;99.90;;;;;;4991308;28;20517;-69
2022/03/28 05:54:17;;;;;;;18.83;16.73;;;5.40;99.90;;;;;;4990877;28;20461;-69
2022/03/28 05:56:44;;;;;;;25.83;19.60;;;5.40;99.90;;;;;;4990765;28;21152;-68
2022/03/28 05:59:11;;;;;;;22.77;20.10;;;5.40;99.90;;;;;;4990950;28;20539;-68
2022/03/28 06:01:37;;;;;;;21.90;18.40;;;5.50;99.90;;;;;;4990869;28;20488;-69
2022/03/28 06:04:05;;;;;;;23.60;19.00;;;5.70;99.90;;;;;;4990708;28;20539;-68
2022/03/28 06:06:34;;;;;;;25.17;17.83;;;6.00;99.90;;;;;;4990422;28;20487;-70
2022/03/28 06:09:01;;;;;;;26.27;17.63;;;6.30;99.90;;;;;;4990716;28;20604;-70
2022/03/28 06:11:28;;;;;;;21.77;19.47;;;6.40;99.90;;;;;;4990649;28;20450;-69
2022/03/28 06:13:57;;;;;;;24.10;20.40;;;6.70;99.90;;;;;;4990626;28;20457;-68
2022/03/28 06:16:23;;;;;;;22.07;19.77;;;6.90;99.90;;;;;;4990615;28;20517;-69
2022/03/28 06:18:50;;;;;;;41.43;20.87;;;7.10;99.90;;;;;;4990786;28;20461;-69
2022/03/28 06:21:17;;;;;;;34.90;20.97;;;7.30;99.90;;;;;;4990478;28;20489;-69
2022/03/28 06:23:45;;;;;;;28.90;21.80;;;7.50;99.90;;;;;;4990748;28;20911;-68
2022/03/28 06:26:12;;;;;;;28.13;22.47;;;7.60;99.90;;;;;;4991366;28;20462;-69
2022/03/28 06:28:40;;;;;;;24.87;22.17;;;7.80;99.90;;;;;;4994052;28;20446;-69
2022/03/28 06:31:06;;;;;;;22.40;19.50;;;8.00;99.90;;;;;;4994194;28;20510;-70
2022/03/28 06:33:33;;;;;;;25.00;22.43;;;8.30;99.90;;;;;;4994187;28;20853;-70
2022/03/28 06:36:01;;;;;;;22.23;19.97;;;8.30;99.90;;;;;;4994068;28;20450;-71
2022/03/28 06:38:27;;;;;;;21.70;19.10;;;8.50;99.90;;;;;;4993748;28;20458;-69
2022/03/28 06:40:55;;;;;;;22.00;19.77;;;8.50;99.80;;;;;;4993784;28;20489;-69
2022/03/28 06:43:22;;;;;;;20.47;18.37;;;8.60;99.50;;;;;;4994181;28;20454;-71
2022/03/28 06:45:50;;;;;;;24.40;19.47;;;8.70;99.00;;;;;;4993842;28;20462;-71
2022/03/28 06:48:17;;;;;;;22.30;20.00;;;8.80;98.60;;;;;;4993700;28;20873;-71
2022/03/28 06:50:44;;;;;;;24.97;22.23;;;9.00;98.20;;;;;;4993682;28;20708;-73
2022/03/28 06:53:11;;;;;;;24.20;20.53;;;9.20;97.80;;;;;;4993738;28;20490;-69
2022/03/28 06:55:37;;;;;;;22.47;19.43;;;9.30;97.60;;;;;;4994015;28;20455;-69
2022/03/28 06:58:06;;;;;;;21.07;18.87;;;9.30;97.10;;;;;;4993886;28;20459;-69
2022/03/28 07:00:34;;;;;;;20.33;18.10;;;9.40;97.10;;;;;;4993729;28;20454;-69
2022/03/28 07:03:01;;;;;;;20.37;18.43;;;9.50;96.90;;;;;;4993175;28;20636;-71
2022/03/28 07:05:28;;;;;;;22.23;20.00;;;9.70;96.30;;;;;;4993261;28;20509;-70
2022/03/28 07:07:56;;;;;;;22.13;19.07;;;9.90;95.80;;;;;;4993371;28;20468;-70
2022/03/28 07:10:23;;;;;;;23.00;19.10;;;10.10;94.90;;;;;;4993479;28;20522;-70
2022/03/28 07:12:51;;;;;;;26.67;20.20;;;10.30;94.40;;;;;;4993624;28;20447;-71
2022/03/28 07:15:19;;;;;;;23.20;21.20;;;10.50;93.90;;;;;;4993384;28;20838;-70
2022/03/28 07:17:48;;;;;;;23.77;21.30;;;10.60;93.60;;;;;;4994487;28;20454;-70
2022/03/28 07:20:15;;;;;;;23.10;19.93;;;10.90;93.30;;;;;;4992972;28;20453;-71
2022/03/28 07:22:42;;;;;;;29.40;21.30;;;10.90;92.20;;;;;;4993184;28;20498;-71
2022/03/28 07:25:10;;;;;;;21.63;19.50;;;11.00;92.30;;;;;;4992965;28;20462;-71
2022/03/28 07:27:38;;;;;;;21.00;19.10;;;11.00;92.20;;;;;;4993329;28;20454;-71
2022/03/28 07:30:06;;;;;;;23.83;19.47;;;11.00;91.60;;;;;;4993119;28;20494;-70
2022/03/28 07:32:35;;;;;;;22.33;20.00;;;11.10;91.60;;;;;;4992912;28;20454;-71
2022/03/28 07:35:01;;;;;;;21.80;19.87;;;11.30;91.60;;;;;;4992634;28;20943;-71
2022/03/28 07:37:28;;;;;;;22.47;20.00;;;11.30;91.20;;;;;;4992717;28;20454;-71
2022/03/28 07:39:56;;;;;;;22.47;20.07;;;11.50;91.40;;;;;;4992900;28;20486;-70
2022/03/28 07:42:23;;;;;;;27.67;22.20;;;12.10;91.20;;;;;;4993083;28;20577;-71
2022/03/28 07:44:51;;;;;;;23.97;21.60;;;12.40;89.80;;;;;;4992952;28;20451;-71
2022/03/28 07:47:18;;;;;;;23.70;21.50;;;12.60;88.20;;;;;;4992911;28;20454;-71
2022/03/28 07:49:46;;;;;;;25.43;22.80;;;12.80;88.00;;;;;;4992613;28;20450;-70
2022/03/28 07:52:13;;;;;;;22.77;20.77;;;13.00;85.50;;;;;;4992878;28;20472;-71
2022/03/28 07:54:39;;;;;;;25.40;22.60;;;12.80;85.30;;;;;;4992625;28;20465;-71
2022/03/28 07:57:06;;;;;;;25.23;22.83;;;13.00;84.70;;;;;;4992713;28;20462;-71
2022/03/28 07:59:33;;;;;;;23.53;21.07;;;13.30;83.70;;;;;;4992402;28;20455;-71
2022/03/28 08:02:00;;;;;;;22.90;20.50;;;13.40;82.20;;;;;;4992297;28;20487;-71
2022/03/28 08:04:26;;;;;;;22.63;20.23;;;13.10;82.90;;;;;;4992050;28;20470;-71
2022/03/28 08:06:54;;;;;;;26.97;21.43;;;13.10;83.20;;;;;;4992107;28;20854;-71
2022/03/28 08:09:21;;;;;;;32.70;24.30;;;13.20;83.20;;;;;;4992555;28;20463;-70
2022/03/28 08:11:48;;;;;;;24.47;21.93;;;13.60;82.10;;;;;;4992196;28;20451;-71
2022/03/28 08:14:15;;;;;;;24.40;21.90;;;13.80;81.30;;;;;;4992247;28;20495;-71
2022/03/28 08:16:42;;;;;;;25.40;23.00;;;13.90;80.80;;;;;;5007701;28;20450;-71
2022/03/28 08:19:08;;;;;;;27.67;22.23;;;14.50;80.10;;;;;;5011898;28;20450;-71
2022/03/28 08:21:36;;;;;;;23.97;21.50;;;14.50;78.60;;;;;;5011705;28;20485;-72
2022/03/28 08:24:05;;;;;;;24.43;21.90;;;14.80;78.10;;;;;;5011405;28;20450;-71
2022/03/28 08:26:32;;;;;;;23.30;21.23;;;14.80;77.20;;;;;;5011350;28;20504;-76
2022/03/28 08:28:58;;;;;;;24.57;22.03;;;15.10;76.80;;;;;;5011500;28;20619;-73
2022/03/28 08:31:25;;;;;;;23.77;21.57;;;15.60;75.20;;;;;;5011698;28;20461;-72
2022/03/28 08:33:52;;;;;;;26.67;23.73;;;16.00;73.50;;;;;;5011598;28;20818;-72
2022/03/28 18:25:49;;;;;;;22.23;17.83;;;15.30;45.40;;;;;;5405070;23;20854;-73
2022/03/28 18:28:16;;;;;;;25.33;22.77;;;15.00;46.10;;;;;;5006754;28;20481;-72
2022/03/28 18:30:43;;;;;;;22.83;20.53;;;14.90;47.10;;;;;;5011871;28;20820;-72
2022/03/28 18:33:11;;;;;;;20.70;18.60;;;14.70;47.80;;;;;;5012298;28;20465;-72
2022/03/28 18:35:38;;;;;;;16.80;15.20;;;14.60;48.20;;;;;;5013176;28;20454;-72
2022/03/28 18:38:05;;;;;;;16.30;14.63;;;14.60;49.10;;;;;;5012961;28;20466;-72
2022/03/28 18:40:32;;;;;;;17.70;16.07;;;14.40;49.50;;;;;;5012688;28;20461;-72
2022/03/28 18:43:00;;;;;;;18.73;17.23;;;14.20;49.60;;;;;;5012725;28;20489;-72
2022/03/28 18:45:27;;;;;;;19.50;16.97;;;14.20;51.30;;;;;;5012738;28;20721;-72
2022/03/28 18:47:53;;;;;;;17.90;16.47;;;14.10;51.70;;;;;;5012625;28;20461;-72
2022/03/28 18:50:20;;;;;;;19.40;17.43;;;14.10;51.90;;;;;;5013292;28;20458;-72
2022/03/28 18:52:47;;;;;;;18.87;17.00;;;14.10;52.00;;;;;;5013006;28;20446;-71
2022/03/28 18:55:14;;;;;;;20.70;17.53;;;14.10;52.00;;;;;;5012539;28;20458;-72
2022/03/28 18:57:43;;;;;;;18.70;16.80;;;14.00;52.50;;;;;;5012695;28;20472;-72
2022/03/28 19:00:14;;;;;;;17.77;16.00;;;13.80;53.10;;;;;;5012395;28;20446;-72
2022/03/28 19:02:43;;;;;;;16.80;15.20;;;13.90;53.90;;;;;;5012710;28;21166;-71
2022/03/28 19:05:10;;;;;;;19.77;17.93;;;13.90;53.30;;;;;;5012490;28;20458;-73
2022/03/28 19:07:38;;;;;;;18.60;17.00;;;13.90;53.00;;;;;;5012757;28;20515;-71
2022/03/28 19:10:05;;;;;;;18.20;16.43;;;13.90;53.20;;;;;;5012573;28;20538;-72
2022/03/28 19:12:32;;;;;;;19.37;17.53;;;13.70;53.50;;;;;;5012545;28;20462;-72
2022/03/28 19:14:59;;;;;;;20.13;18.03;;;13.70;53.80;;;;;;5012261;28;20819;-72
2022/03/28 19:17:27;;;;;;;21.73;18.87;;;13.50;54.20;;;;;;5012521;28;20461;-72
2022/03/28 19:19:54;;;;;;;28.40;20.37;;;13.50;54.60;;;;;;5012268;28;20548;-72
2022/03/28 19:22:20;;;;;;;26.77;18.57;;;13.50;54.60;;;;;;5012472;28;20864;-72
2022/03/28 19:24:47;;;;;;;28.07;18.80;;;13.60;54.80;;;;;;5031717;28;20839;-72
2022/03/28 19:27:15;;;;;;;22.13;19.83;;;13.60;54.70;;;;;;5031580;28;20488;-72
2022/03/28 19:29:42;;;;;;;24.00;18.93;;;13.60;54.80;;;;;;5031945;28;20504;-72
2022/03/28 19:32:10;;;;;;;20.47;18.57;;;13.40;55.00;;;;;;5031632;28;20449;-72
2022/03/28 19:34:38;;;;;;;19.80;17.77;;;13.20;55.90;;;;;;5031861;28;20441;-71
2022/03/28 19:37:04;;;;;;;24.77;17.60;;;13.00;56.30;;;;;;5031940;28;20864;-73
2022/03/28 19:39:32;;;;;;;24.63;19.33;;;12.90;56.80;;;;;;5031879;28;20527;-73
2022/03/28 19:42:00;;;;;;;20.07;18.13;;;12.70;57.50;;;;;;5031526;28;20449;-72
2022/03/28 19:44:27;;;;;;;18.17;16.37;;;12.60;59.60;;;;;;5031472;28;20488;-73
2022/03/28 19:46:53;;;;;;;19.13;16.90;;;12.60;60.90;;;;;;5031534;28;20499;-72
2022/03/28 19:49:21;;;;;;;19.43;17.70;;;12.50;60.90;;;;;;5031685;28;20453;-73
2022/03/28 19:51:52;;;;;;;22.90;17.47;;;12.40;61.10;;;;;;5031613;28;20954;-72
2022/03/28 19:54:19;;;;;;;23.70;16.80;;;12.40;61.50;;;;;;5031575;28;20939;-72
2022/03/28 19:56:45;;;;;;;22.47;18.10;;;12.40;61.30;;;;;;5031285;28;20456;-72
2022/03/28 19:59:12;;;;;;;19.27;17.57;;;12.50;61.40;;;;;;5031222;28;21255;-72
2022/03/28 20:01:41;;;;;;;19.43;17.53;;;12.50;61.20;;;;;;5031273;28;20480;-72
2022/03/28 20:04:09;;;;;;;19.93;18.07;;;12.60;61.40;;;;;;5023026;28;20520;-72
2022/03/28 20:06:37;;;;;;;19.37;17.67;;;12.50;61.60;;;;;;5031334;28;20445;-72
2022/03/28 20:09:05;;;;;;;19.43;17.70;;;12.50;63.20;;;;;;5031127;28;20518;-72
2022/03/28 20:11:32;;;;;;;21.43;19.23;;;12.40;63.10;;;;;;5031235;28;20448;-72
2022/03/28 20:14:03;;;;;;;21.23;19.13;;;12.30;63.70;;;;;;5031071;28;20449;-72
2022/03/28 20:16:30;;;;;;;18.63;16.67;;;12.20;65.00;;;;;;5031215;28;20452;-73
2022/03/28 20:18:56;;;;;;;20.70;18.57;;;12.20;65.80;;;;;;5030761;28;20457;-73
2022/03/28 20:21:26;;;;;;;20.57;18.47;;;12.00;66.00;;;;;;5031126;28;20483;-72
2022/03/28 20:23:54;;;;;;;21.40;19.20;;;11.90;66.60;;;;;;5030831;28;20949;-71
2022/03/28 20:26:22;;;;;;;21.97;19.80;;;11.70;68.20;;;;;;5031005;28;20449;-71
2022/03/28 20:28:48;;;;;;;20.00;17.83;;;11.70;70.50;;;;;;5031099;28;20452;-71
2022/03/28 20:31:15;;;;;;;20.10;18.20;;;11.70;71.40;;;;;;5030594;28;20448;-72
2022/03/28 20:33:43;;;;;;;19.50;17.10;;;11.80;71.90;;;;;;5030924;28;20560;-72
2022/03/28 20:36:10;;;;;;;19.27;17.57;;;11.70;72.40;;;;;;5022777;28;20449;-72
2022/03/28 20:38:37;;;;;;;19.73;18.10;;;11.50;73.00;;;;;;5030856;28;20510;-71
2022/03/28 20:41:05;;;;;;;19.57;17.90;;;11.40;74.30;;;;;;5030481;28;20510;-71
2022/03/28 20:43:33;;;;;;;20.37;18.30;;;11.40;75.10;;;;;;5030597;28;21013;-72
2022/03/28 20:46:00;;;;;;;19.80;17.90;;;11.40;76.30;;;;;;5029916;28;20468;-72
2022/03/28 20:48:30;;;;;;;19.57;17.77;;;11.40;76.40;;;;;;5030217;28;20449;-71
2022/03/28 20:50:59;;;;;;;19.50;17.57;;;11.40;76.50;;;;;;5029423;28;20453;-71
2022/03/28 20:53:26;;;;;;;19.00;17.20;;;11.40;77.00;;;;;;5027478;28;20460;-69
2022/03/28 20:55:53;;;;;;;26.60;17.90;;;11.60;76.60;;;;;;5015996;28;20461;-70
2022/03/28 20:58:20;;;;;;;21.53;19.53;;;11.70;76.00;;;;;;5011311;28;20458;-71
2022/03/28 21:00:48;;;;;;;21.43;19.27;;;11.70;76.30;;;;;;5017511;28;20829;-71
2022/03/28 21:03:16;;;;;;;20.33;18.27;;;11.70;76.70;;;;;;5014100;28;20551;-72
2022/03/28 21:05:45;;;;;;;21.90;19.77;;;11.70;76.50;;;;;;5010697;28;20465;-72
2022/03/28 21:08:13;;;;;;;22.03;19.43;;;11.70;77.60;;;;;;5010646;28;20458;-72
2022/03/28 21:10:40;;;;;;;20.17;18.33;;;11.70;78.10;;;;;;5010860;28;20508;-71
2022/03/28 21:13:07;;;;;;;22.00;19.90;;;11.70;78.30;;;;;;5010470;28;20473;-71
2022/03/28 21:15:36;;;;;;;22.23;19.50;;;11.80;78.10;;;;;;5010867;28;20450;-72
2022/03/28 21:18:05;;;;;;;22.20;19.90;;;11.80;78.20;;;;;;5010754;28;20469;-71
2022/03/28 21:20:32;;;;;;;23.70;19.80;;;11.70;78.60;;;;;;5010578;28;20462;-71
2022/03/28 21:23:00;;;;;;;20.73;18.73;;;11.60;79.30;;;;;;5010434;28;20492;-71
2022/03/28 21:25:27;;;;;;;21.73;18.57;;;11.60;79.80;;;;;;5010070;28;20458;-70
2022/03/28 21:27:54;;;;;;;20.70;18.67;;;11.70;79.90;;;;;;5010337;28;20485;-70
2022/03/28 21:30:20;;;;;;;22.33;19.63;;;11.70;79.50;;;;;;5010736;28;20516;-70
2022/03/28 21:32:47;;;;;;;20.57;18.80;;;11.60;79.70;;;;;;5010582;28;20481;-70
2022/03/28 21:35:15;;;;;;;22.10;20.10;;;11.50;80.30;;;;;;5010427;28;20464;-70
2022/03/28 21:37:42;;;;;;;20.83;18.70;;;11.50;80.60;;;;;;5010149;28;20460;-71
2022/03/28 21:40:11;;;;;;;20.77;18.83;;;11.50;80.80;;;;;;5010538;28;20517;-71
2022/03/28 21:42:38;;;;;;;20.13;18.37;;;11.40;81.20;;;;;;5010570;28;20507;-71
2022/03/28 21:45:07;;;;;;;21.67;19.57;;;11.40;82.40;;;;;;5010594;28;20580;-72
2022/03/28 21:47:33;;;;;;;21.37;19.40;;;11.40;81.90;;;;;;5010567;28;20449;-71
2022/03/28 21:50:00;;;;;;;20.47;18.30;;;11.30;82.00;;;;;;5010214;28;20493;-72
2022/03/28 21:52:29;;;;;;;20.03;18.17;;;11.30;82.20;;;;;;5010151;28;20460;-71
2022/03/28 21:54:57;;;;;;;24.97;18.00;;;11.30;82.40;;;;;;5010257;28;20461;-71
2022/03/28 21:57:28;;;;;;;21.87;19.97;;;11.20;82.90;;;;;;5013021;28;20457;-70
2022/03/28 21:59:55;;;;;;;20.07;18.17;;;11.20;83.70;;;;;;5014089;28;20456;-69
2022/03/28 22:02:22;;;;;;;20.87;19.07;;;11.10;85.10;;;;;;5024206;28;20492;-69
2022/03/28 22:04:49;;;;;;;20.97;18.67;;;11.10;86.80;;;;;;5014692;28;20489;-70
2022/03/28 22:07:15;;;;;;;21.83;19.57;;;11.10;87.30;;;;;;5013982;28;20460;-69
2022/03/28 22:09:43;;;;;;;19.47;17.80;;;11.10;87.00;;;;;;5014069;28;20497;-70
2022/03/28 22:12:10;;;;;;;22.60;20.20;;;11.10;87.30;;;;;;5013706;28;20449;-70
2022/03/28 22:14:37;;;;;;;21.63;19.70;;;11.10;87.60;;;;;;5013886;28;20457;-70
2022/03/28 22:17:04;;;;;;;24.30;21.87;;;11.00;87.50;;;;;;5014080;28;20515;-70
2022/03/28 22:19:31;;;;;;;25.50;22.80;;;11.00;88.60;;;;;;5013806;28;20461;-70
2022/03/28 22:21:57;;;;;;;22.63;20.43;;;10.90;89.10;;;;;;5013910;28;20458;-70
2022/03/28 22:24:24;;;;;;;25.00;22.60;;;11.00;89.50;;;;;;5013323;28;20500;-70
2022/03/28 22:26:52;;;;;;;22.53;20.20;;;11.00;89.60;;;;;;5013680;28;21026;-72
2022/03/28 22:29:19;;;;;;;22.17;19.97;;;11.00;90.00;;;;;;5013998;28;20477;-72
2022/03/28 22:31:45;;;;;;;22.83;20.30;;;10.90;89.80;;;;;;5013691;28;20457;-71
2022/03/28 22:34:12;;;;;;;23.43;20.93;;;10.90;89.30;;;;;;5013316;28;20446;-72
2022/03/28 22:36:39;;;;;;;22.97;20.47;;;10.90;89.00;;;;;;5013452;28;20840;-70
2022/03/28 22:39:06;;;;;;;23.10;20.97;;;10.80;89.10;;;;;;5013629;28;20526;-70
2022/03/28 22:41:33;;;;;;;23.23;21.07;;;10.80;89.40;;;;;;5013572;28;20465;-70
2022/03/28 22:44:01;;;;;;;23.50;21.27;;;10.80;89.60;;;;;;5013494;28;20558;-71
2022/03/28 22:46:27;;;;;;;22.57;20.27;;;10.70;89.70;;;;;;5013264;28;20461;-70
2022/03/28 22:48:54;;;;;;;22.77;20.57;;;10.60;89.90;;;;;;5013225;28;20450;-72
2022/03/28 22:51:20;;;;;;;22.80;20.63;;;10.60;90.00;;;;;;5013595;28;20865;-71
2022/03/28 22:53:47;;;;;;;21.97;19.90;;;10.60;90.20;;;;;;5012982;28;20448;-71
2022/03/28 22:56:14;;;;;;;21.70;19.50;;;10.60;90.20;;;;;;5012968;28;20477;-71
2022/03/28 22:58:40;;;;;;;20.23;18.53;;;10.70;90.70;;;;;;5012962;28;20940;-72
2022/03/28 23:01:08;;;;;;;21.10;19.20;;;10.60;90.50;;;;;;5013119;28;20953;-72
2022/03/28 23:03:35;;;;;;;20.53;18.60;;;10.60;90.50;;;;;;5023898;28;20487;-72
2022/03/28 23:06:02;;;;;;;21.30;18.70;;;10.60;90.40;;;;;;5012908;28;20456;-71
2022/03/28 23:08:28;;;;;;;20.37;18.37;;;10.60;90.50;;;;;;5011982;28;20478;-72
2022/03/28 23:10:55;;;;;;;19.50;17.63;;;10.60;90.50;;;;;;5012795;28;20457;-71
2022/03/28 23:13:22;;;;;;;21.37;19.40;;;10.60;90.70;;;;;;5012797;28;20969;-71
2022/03/28 23:15:49;;;;;;;21.70;19.77;;;10.50;90.70;;;;;;5013077;28;20454;-73
2022/03/28 23:18:17;;;;;;;21.07;19.27;;;10.50;91.10;;;;;;5012570;28;20460;-71
2022/03/28 23:20:43;;;;;;;21.50;19.37;;;10.40;91.70;;;;;;5012632;28;20500;-72
2022/03/28 23:23:10;;;;;;;23.87;21.57;;;10.40;92.00;;;;;;5012512;28;20507;-70
2022/03/28 23:25:37;;;;;;;23.53;19.80;;;10.40;91.90;;;;;;5012291;28;20497;-71
2022/03/28 23:28:03;;;;;;;27.43;21.30;;;10.30;92.10;;;;;;5012399;28;20980;-70
2022/03/28 23:30:30;;;;;;;24.00;21.53;;;10.30;92.20;;;;;;5012598;28;20512;-72
2022/03/28 23:32:57;;;;;;;24.80;22.40;;;10.30;92.00;;;;;;5012296;28;20450;-71
2022/03/28 23:35:25;;;;;;;24.40;22.00;;;10.20;92.00;;;;;;5012573;28;20454;-69
2022/03/28 23:37:52;;;;;;;22.70;20.27;;;10.20;92.20;;;;;;5012267;28;20839;-69
2022/03/28 23:40:19;;;;;;;23.70;21.40;;;10.20;92.60;;;;;;5012300;28;20955;-71
2022/03/28 23:42:46;;;;;;;22.00;19.90;;;10.10;92.90;;;;;;5012232;28;20452;-70
2022/03/28 23:45:12;;;;;;;22.03;19.73;;;10.00;93.20;;;;;;5012016;28;20525;-70
2022/03/28 23:47:39;;;;;;;24.17;21.97;;;10.10;93.40;;;;;;5012467;28;20446;-70
2022/03/28 23:50:07;;;;;;;20.63;18.73;;;10.00;93.50;;;;;;5012262;28;20508;-70
2022/03/28 23:52:35;;;;;;;20.53;18.63;;;10.00;93.40;;;;;;5012186;28;20461;-70
2022/03/28 23:55:01;;;;;;;21.20;19.00;;;10.00;93.70;;;;;;5012050;28;20450;-70
2022/03/28 23:57:28;;;;;;;20.87;18.73;;;9.90;94.30;;;;;;5012064;28;20469;-70
2022/03/28 23:59:55;;;;;;;24.80;22.30;;;9.90;94.70;;;;;;5011827;28;20453;-70
